Pagrindinis puslapis
METAR-TAF:

METAR-TAF

Oro uostai :

Noatak, Aliaska, Jungtinės Amerikos Valstijos

platuma: 67-34N, ilguma: 162-59W, Aukštis: 27 m

Dabartinis oras

Ataskaita buvo paskelbta 7 minutes, ne 19:56 UTC
Ramus vėjas
Temperatūra -10°C
Drėgmė 92%
Slėgis 1022 hPa
Matomumas: 1.6 km
Apsiniaukę ne aukštis 400 ft
rūkana

METAR: PAWN 281956Z AUTO 00000KT 1SM BR OVC004 M10/M11 A3018 RMK AO2 SNB00E14 SLP232 P0000 T11001111 FZRANO

Laikas: 12:03 (20:03 UTC)


TAF: trūkstamas

Orai ataskaitas ir orų prognozės (METAR, TAF).

turimą stotys yra geltonos ir raudonos taškus žemėlapyje.

Perkelti pele per norėdami pamatyti stoties vardą.

Tada spustelėkite, norėdami matyti oro stebėjimo ir prognozės.

Norėdami pakeisti žemėlapį: spustelėkite ant žalios mygtukų su juodo kryžiaus žemyn,; žalią mygtuką su brūkšneliu, jei norite nutolinti; arba žalių rodyklių gretimoms žemėlapius.


METAR-TAF: